createdAt,value
2018-09-06T00:00:25.459Z,24.30
2018-09-06T00:01:30.073Z,24.30
2018-09-06T00:02:34.680Z,24.30
2018-09-06T00:03:39.326Z,24.30
2018-09-06T00:04:43.982Z,24.30
2018-09-06T00:05:48.568Z,24.30
2018-09-06T00:06:53.193Z,24.30
2018-09-06T00:07:57.805Z,24.30
2018-09-06T00:09:02.449Z,24.20
2018-09-06T00:10:07.087Z,24.20
2018-09-06T00:11:11.709Z,24.20
2018-09-06T00:12:16.297Z,24.20
2018-09-06T00:13:20.909Z,24.20
2018-09-06T00:14:25.550Z,24.20
2018-09-06T00:15:30.219Z,24.20
2018-09-06T00:16:34.828Z,24.20
2018-09-06T00:17:40.328Z,24.20
2018-09-06T00:18:44.981Z,24.20
2018-09-06T00:19:49.649Z,24.20
2018-09-06T00:20:54.317Z,24.10
2018-09-06T00:21:58.974Z,24.10
2018-09-06T00:23:03.607Z,24.10
2018-09-06T00:24:08.223Z,24.10
2018-09-06T00:25:12.818Z,24.10
2018-09-06T00:26:17.445Z,24.10
2018-09-06T00:27:22.050Z,24.10
2018-09-06T00:28:26.643Z,24.10
2018-09-06T00:29:31.313Z,24.10
2018-09-06T00:30:35.896Z,24.10
2018-09-06T00:31:40.486Z,24.10
2018-09-06T00:32:45.143Z,24.10
2018-09-06T00:33:49.815Z,24.10
2018-09-06T00:34:54.438Z,24.10
2018-09-06T00:35:59.091Z,24.10
2018-09-06T00:37:03.964Z,24.10
2018-09-06T00:38:08.606Z,24.10
2018-09-06T00:39:13.192Z,24.10
2018-09-06T00:40:17.890Z,24.10
2018-09-06T00:41:22.541Z,24.10
2018-09-06T00:42:27.431Z,24.10
2018-09-06T00:43:32.086Z,24.10
2018-09-06T00:44:37.825Z,24.10
2018-09-06T00:45:42.496Z,24.10
2018-09-06T00:46:47.141Z,24.20
2018-09-06T00:47:51.702Z,24.10
2018-09-06T00:48:56.146Z,24.20
2018-09-06T00:50:00.768Z,24.20
2018-09-06T00:51:05.292Z,24.20
2018-09-06T00:52:09.828Z,24.10
2018-09-06T00:53:14.369Z,24.10
2018-09-06T00:54:18.954Z,24.10
2018-09-06T00:55:23.466Z,24.10
2018-09-06T00:56:27.819Z,24.10
2018-09-06T00:57:32.309Z,24.10
2018-09-06T00:58:36.718Z,24.10
2018-09-06T00:59:41.208Z,24.10
2018-09-06T01:00:45.622Z,24.10
2018-09-06T01:01:49.965Z,24.10
2018-09-06T01:02:54.294Z,24.10
2018-09-06T01:03:58.642Z,24.10
2018-09-06T01:05:03.545Z,24.10
2018-09-06T01:06:08.796Z,24.00
2018-09-06T01:07:13.338Z,24.10
2018-09-06T01:08:17.801Z,24.10
2018-09-06T01:09:22.128Z,24.10
2018-09-06T01:10:26.758Z,24.10
2018-09-06T01:11:31.267Z,24.10
2018-09-06T01:12:35.841Z,24.00
2018-09-06T01:13:40.261Z,24.00
2018-09-06T01:14:44.895Z,24.00
2018-09-06T01:15:49.347Z,24.00
2018-09-06T01:16:53.668Z,24.00
2018-09-06T01:17:58.298Z,24.00
2018-09-06T01:19:02.858Z,24.00
2018-09-06T01:20:07.288Z,24.10
2018-09-06T01:21:11.645Z,24.10
2018-09-06T01:22:16.121Z,24.00
2018-09-06T01:23:20.498Z,24.10
2018-09-06T01:24:25.012Z,24.00
2018-09-06T01:25:29.664Z,24.00
2018-09-06T01:26:34.074Z,24.00
2018-09-06T01:27:38.516Z,24.00
2018-09-06T01:28:43.033Z,24.00
2018-09-06T01:29:47.458Z,24.00
2018-09-06T01:30:51.856Z,24.00
2018-09-06T01:31:56.279Z,24.00
2018-09-06T01:33:00.694Z,24.00
2018-09-06T01:34:05.076Z,24.00
2018-09-06T01:35:09.459Z,24.00
2018-09-06T01:36:13.762Z,24.00
2018-09-06T01:37:18.217Z,24.00
2018-09-06T01:38:22.706Z,24.00
2018-09-06T01:39:27.071Z,24.00
2018-09-06T01:40:31.551Z,24.00
2018-09-06T01:41:36.087Z,24.00
2018-09-06T01:42:40.630Z,23.90
2018-09-06T01:43:45.363Z,23.90
2018-09-06T01:44:49.860Z,24.00
2018-09-06T01:45:54.308Z,23.90
2018-09-06T01:46:58.655Z,23.90
2018-09-06T01:48:03.011Z,23.90
2018-09-06T01:49:07.253Z,23.90
2018-09-06T01:50:11.649Z,23.90
2018-09-06T01:51:16.060Z,23.90
2018-09-06T01:52:20.674Z,23.90
2018-09-06T01:53:25.201Z,23.90
2018-09-06T01:54:29.447Z,23.90
2018-09-06T01:55:33.822Z,23.90
2018-09-06T01:56:38.300Z,24.00
2018-09-06T01:57:42.758Z,23.90
2018-09-06T01:58:47.187Z,24.00
2018-09-06T01:59:51.698Z,24.00
2018-09-06T02:00:56.169Z,24.00
2018-09-06T02:02:00.572Z,24.00
2018-09-06T02:03:05.088Z,24.00
2018-09-06T02:04:09.474Z,24.00
2018-09-06T02:05:13.915Z,24.00
2018-09-06T02:06:18.229Z,23.90
2018-09-06T02:07:22.586Z,23.90
2018-09-06T02:08:27.098Z,23.90
2018-09-06T02:09:31.680Z,23.90
2018-09-06T02:10:36.107Z,23.90
2018-09-06T02:11:40.581Z,23.90
2018-09-06T02:12:44.925Z,23.90
2018-09-06T02:13:49.377Z,23.90
2018-09-06T02:14:53.735Z,23.90
2018-09-06T02:15:58.217Z,23.90
2018-09-06T02:17:02.650Z,23.90
2018-09-06T02:18:07.054Z,23.90
2018-09-06T02:19:11.301Z,23.90
2018-09-06T02:20:15.749Z,23.90
2018-09-06T02:21:19.977Z,23.90
2018-09-06T02:22:24.445Z,23.90
2018-09-06T02:23:28.827Z,23.90
2018-09-06T02:24:33.146Z,23.90
2018-09-06T02:25:37.625Z,23.90
2018-09-06T02:26:41.982Z,23.90
2018-09-06T02:27:46.246Z,23.90
2018-09-06T02:28:50.775Z,23.90
2018-09-06T02:29:55.195Z,23.90
2018-09-06T02:30:59.560Z,23.90
2018-09-06T02:32:03.933Z,23.90
2018-09-06T02:33:08.170Z,23.90
2018-09-06T02:34:12.610Z,23.90
2018-09-06T02:35:17.100Z,23.90
2018-09-06T02:36:21.617Z,23.90
2018-09-06T02:37:26.060Z,23.80
2018-09-06T02:38:30.558Z,23.80
2018-09-06T02:39:34.972Z,23.80
2018-09-06T02:40:39.500Z,23.80
2018-09-06T02:41:43.905Z,23.80
2018-09-06T02:42:48.267Z,23.80
2018-09-06T02:43:52.509Z,23.90
2018-09-06T02:44:56.831Z,23.90
2018-09-06T02:46:01.289Z,23.90
2018-09-06T02:47:05.666Z,23.90
2018-09-06T02:48:10.067Z,23.80
2018-09-06T02:49:14.687Z,23.90
2018-09-06T02:50:19.190Z,23.80
2018-09-06T02:51:23.535Z,23.80
2018-09-06T02:52:27.951Z,23.80
2018-09-06T02:53:32.403Z,23.80
2018-09-06T02:54:36.798Z,23.80
2018-09-06T02:55:41.091Z,23.80
2018-09-06T02:56:45.390Z,23.80
2018-09-06T02:57:49.739Z,23.80
2018-09-06T02:58:54.058Z,23.80
2018-09-06T02:59:58.471Z,23.80
2018-09-06T03:01:03.026Z,23.80
2018-09-06T03:02:07.525Z,23.80
2018-09-06T03:03:11.936Z,23.80
2018-09-06T03:04:16.259Z,23.90
2018-09-06T03:05:20.550Z,23.80
2018-09-06T03:06:24.828Z,23.80
2018-09-06T03:07:29.322Z,23.80
2018-09-06T03:08:33.641Z,23.80
2018-09-06T03:09:38.184Z,23.80
2018-09-06T03:10:42.587Z,23.80
2018-09-06T03:11:47.001Z,23.80
2018-09-06T03:12:51.612Z,23.80
2018-09-06T03:13:56.164Z,23.80
2018-09-06T03:15:00.527Z,23.80
2018-09-06T03:16:05.037Z,23.80
2018-09-06T03:17:09.573Z,23.80
2018-09-06T03:18:13.908Z,23.70
2018-09-06T03:19:18.248Z,23.80
2018-09-06T03:20:22.686Z,23.80
2018-09-06T03:21:27.198Z,23.80
2018-09-06T03:22:31.729Z,23.70
2018-09-06T03:23:36.169Z,23.80
2018-09-06T03:24:40.728Z,23.80
2018-09-06T03:25:45.136Z,23.80
2018-09-06T03:26:49.515Z,23.80
2018-09-06T03:27:54.083Z,23.80
2018-09-06T03:28:58.691Z,23.80
2018-09-06T03:30:03.057Z,23.80
2018-09-06T03:31:07.435Z,23.70
2018-09-06T03:32:11.939Z,23.70
2018-09-06T03:33:16.358Z,23.80
2018-09-06T03:34:20.683Z,23.80
2018-09-06T03:35:25.173Z,23.80
2018-09-06T03:36:29.569Z,23.80
2018-09-06T03:37:33.852Z,23.70
2018-09-06T03:38:38.297Z,23.70
2018-09-06T03:39:42.757Z,23.80
2018-09-06T03:40:47.157Z,23.80
2018-09-06T03:41:51.509Z,23.80
2018-09-06T03:42:55.803Z,23.80
2018-09-06T03:44:00.171Z,23.80
2018-09-06T03:45:04.536Z,23.80
2018-09-06T03:46:08.979Z,23.80
2018-09-06T03:47:13.452Z,23.70
2018-09-06T03:48:17.914Z,23.70
2018-09-06T03:49:22.383Z,23.70
2018-09-06T03:50:26.756Z,23.70
2018-09-06T03:51:31.301Z,23.70
2018-09-06T03:52:35.651Z,23.70
2018-09-06T03:53:39.905Z,23.70
2018-09-06T03:54:44.370Z,23.60
2018-09-06T03:55:48.735Z,23.70
2018-09-06T03:56:53.256Z,23.70
2018-09-06T03:57:57.690Z,23.70
2018-09-06T03:59:02.071Z,23.70
2018-09-06T04:00:06.566Z,23.70
2018-09-06T04:01:11.069Z,23.70
2018-09-06T04:02:15.606Z,23.70
2018-09-06T04:03:20.109Z,23.70
2018-09-06T04:04:24.528Z,23.70
2018-09-06T04:05:28.743Z,23.70
2018-09-06T04:06:33.185Z,23.70
2018-09-06T04:07:37.748Z,23.70
2018-09-06T04:08:42.064Z,23.70
2018-09-06T04:09:46.375Z,23.70
2018-09-06T04:10:50.805Z,23.70
2018-09-06T04:11:55.314Z,23.60
2018-09-06T04:12:59.587Z,23.60
2018-09-06T04:14:04.116Z,23.60
2018-09-06T04:15:08.568Z,23.60
2018-09-06T04:16:13.047Z,23.60
2018-09-06T04:17:17.509Z,23.60
2018-09-06T04:18:21.956Z,23.70
2018-09-06T04:19:26.474Z,23.60
2018-09-06T04:20:30.815Z,23.60
2018-09-06T04:21:35.262Z,23.60
2018-09-06T04:22:39.735Z,23.60
2018-09-06T04:23:44.243Z,23.60
2018-09-06T04:24:48.597Z,23.60
2018-09-06T04:25:53.096Z,23.60
2018-09-06T04:26:57.779Z,23.60
2018-09-06T04:28:02.335Z,23.60
2018-09-06T04:29:06.795Z,23.60
2018-09-06T04:30:11.180Z,23.60
2018-09-06T04:31:15.510Z,23.60
2018-09-06T04:32:20.025Z,23.60
2018-09-06T04:33:24.366Z,23.60
2018-09-06T04:34:28.879Z,23.60
2018-09-06T04:35:33.506Z,23.60
2018-09-06T04:36:37.938Z,23.60
2018-09-06T04:37:42.355Z,23.60
2018-09-06T04:38:46.877Z,23.60
2018-09-06T04:39:51.405Z,23.60
2018-09-06T04:40:55.912Z,23.60
2018-09-06T04:42:00.476Z,23.60
2018-09-06T04:43:04.897Z,23.60
2018-09-06T04:44:09.340Z,23.60
2018-09-06T04:45:13.754Z,23.60
2018-09-06T04:46:18.300Z,23.60
2018-09-06T04:47:22.744Z,23.60
2018-09-06T04:48:27.261Z,23.60
2018-09-06T04:49:31.633Z,23.60
2018-09-06T04:50:35.951Z,23.60
2018-09-06T04:51:40.441Z,23.60
2018-09-06T04:52:44.853Z,23.60
2018-09-06T04:53:49.372Z,23.60
2018-09-06T04:54:53.860Z,23.60
2018-09-06T04:55:58.228Z,23.70
2018-09-06T04:57:02.699Z,23.70
2018-09-06T04:58:07.213Z,23.70
2018-09-06T04:59:11.603Z,23.60
2018-09-06T05:00:16.066Z,23.60
2018-09-06T05:01:20.367Z,23.70
2018-09-06T05:02:24.825Z,23.70
2018-09-06T05:03:29.348Z,23.70
2018-09-06T05:04:33.876Z,23.60
2018-09-06T05:05:38.517Z,23.60
2018-09-06T05:06:43.022Z,23.70
2018-09-06T05:07:47.646Z,23.70
2018-09-06T05:08:52.307Z,23.60
2018-09-06T05:09:56.881Z,23.60
2018-09-06T05:11:01.304Z,23.60
2018-09-06T05:12:05.587Z,23.60
2018-09-06T05:13:10.111Z,23.60
2018-09-06T05:14:14.464Z,23.60
2018-09-06T05:15:18.733Z,23.60
2018-09-06T05:16:23.260Z,23.60
2018-09-06T05:17:27.624Z,23.60
2018-09-06T05:18:32.150Z,23.60
2018-09-06T05:19:36.741Z,23.60
2018-09-06T05:20:41.120Z,23.60
2018-09-06T05:21:45.516Z,23.60
2018-09-06T05:22:49.865Z,23.60
2018-09-06T05:23:54.268Z,23.60
2018-09-06T05:24:58.725Z,23.50
2018-09-06T05:26:03.240Z,23.50
2018-09-06T05:27:07.754Z,23.50
2018-09-06T05:28:13.681Z,23.50
2018-09-06T05:29:18.155Z,23.60
2018-09-06T05:30:22.443Z,23.60
2018-09-06T05:31:27.014Z,23.50
2018-09-06T05:32:31.468Z,23.50
2018-09-06T05:33:36.014Z,23.50
2018-09-06T05:34:40.431Z,23.60
2018-09-06T05:35:44.966Z,23.50
2018-09-06T05:36:49.450Z,23.60
2018-09-06T05:37:53.860Z,23.60
2018-09-06T05:38:58.209Z,23.50
2018-09-06T05:40:02.751Z,23.50
2018-09-06T05:41:07.222Z,23.50
2018-09-06T05:42:11.701Z,23.60
2018-09-06T05:43:16.083Z,23.60
2018-09-06T05:44:20.367Z,23.60
2018-09-06T05:45:24.849Z,23.60
2018-09-06T05:46:29.422Z,23.70
2018-09-06T05:47:34.006Z,23.70
2018-09-06T05:48:38.411Z,23.60
2018-09-06T05:49:42.861Z,23.60
2018-09-06T05:50:47.167Z,23.60
2018-09-06T05:51:51.701Z,23.60
2018-09-06T05:52:56.059Z,23.60
2018-09-06T05:54:00.583Z,23.60
2018-09-06T05:55:04.884Z,23.60
2018-09-06T05:56:09.141Z,23.60
2018-09-06T05:57:13.408Z,23.60
2018-09-06T05:58:17.876Z,23.60
2018-09-06T05:59:22.155Z,23.60
2018-09-06T06:00:26.443Z,23.70
2018-09-06T06:01:30.738Z,23.70
2018-09-06T06:02:35.033Z,23.70
2018-09-06T06:03:39.536Z,23.70
2018-09-06T06:04:43.935Z,23.60
2018-09-06T06:05:48.412Z,23.60
2018-09-06T06:06:52.763Z,23.70
2018-09-06T06:07:57.133Z,23.70
2018-09-06T06:09:01.675Z,23.70
2018-09-06T06:10:06.180Z,23.70
2018-09-06T06:11:10.635Z,23.70
2018-09-06T06:12:15.073Z,23.70
2018-09-06T06:13:19.455Z,23.70
2018-09-06T06:14:23.804Z,23.70
2018-09-06T06:15:28.041Z,23.60
2018-09-06T06:16:32.563Z,23.50
2018-09-06T06:17:36.844Z,23.50
2018-09-06T06:18:41.215Z,23.50
2018-09-06T06:19:45.720Z,23.40
2018-09-06T06:20:50.093Z,23.40
2018-09-06T06:21:54.538Z,23.40
2018-09-06T06:22:59.054Z,23.50
2018-09-06T06:24:03.781Z,23.50
2018-09-06T06:25:08.329Z,23.50
2018-09-06T06:26:12.940Z,23.60
2018-09-06T06:27:17.409Z,23.60
2018-09-06T06:28:21.739Z,23.60
2018-09-06T06:29:26.089Z,23.70
2018-09-06T06:30:30.617Z,23.70
2018-09-06T06:31:35.113Z,23.70
2018-09-06T06:32:39.620Z,23.70
2018-09-06T06:33:43.946Z,23.70
2018-09-06T06:34:48.712Z,23.70
2018-09-06T06:35:53.189Z,23.70
2018-09-06T06:36:57.803Z,23.70
2018-09-06T06:38:02.358Z,23.70
2018-09-06T06:39:08.254Z,23.70
2018-09-06T06:40:12.673Z,23.70
2018-09-06T06:41:17.127Z,23.70
2018-09-06T06:42:21.565Z,23.70
2018-09-06T06:43:25.894Z,23.60
2018-09-06T06:44:30.213Z,23.60
2018-09-06T06:45:34.760Z,23.60
2018-09-06T06:46:39.409Z,23.60
2018-09-06T06:47:45.087Z,23.60
2018-09-06T06:48:49.664Z,23.60
2018-09-06T06:49:54.118Z,23.60
2018-09-06T06:50:58.603Z,23.60
2018-09-06T06:52:03.129Z,23.60
2018-09-06T06:53:07.468Z,23.60
2018-09-06T06:54:11.787Z,23.60
2018-09-06T06:55:16.293Z,23.60
2018-09-06T06:56:20.756Z,23.60
2018-09-06T06:57:25.291Z,23.60
2018-09-06T06:58:29.640Z,23.60
2018-09-06T06:59:34.059Z,23.50
2018-09-06T07:00:38.515Z,23.50
2018-09-06T07:01:45.492Z,23.50
2018-09-06T07:02:50.109Z,23.50
2018-09-06T07:03:54.618Z,23.50
2018-09-06T07:04:59.210Z,23.50
2018-09-06T07:06:03.872Z,23.50
2018-09-06T07:07:08.425Z,23.50
2018-09-06T07:08:12.698Z,23.50
2018-09-06T07:09:17.046Z,23.50
2018-09-06T07:10:21.561Z,23.50
2018-09-06T07:11:26.131Z,23.50
2018-09-06T07:12:30.615Z,23.50
2018-09-06T07:13:34.933Z,23.50
2018-09-06T07:14:39.345Z,23.50
2018-09-06T07:15:43.783Z,23.60
2018-09-06T07:16:48.071Z,23.60
2018-09-06T07:17:52.559Z,23.60
2018-09-06T07:18:56.995Z,23.60
2018-09-06T07:20:01.374Z,23.60
2018-09-06T07:21:05.665Z,23.70
2018-09-06T07:22:10.142Z,23.70
2018-09-06T07:23:14.494Z,23.70
2018-09-06T07:24:18.989Z,23.70
2018-09-06T07:25:23.450Z,23.70
2018-09-06T07:26:27.944Z,23.60
2018-09-06T07:27:32.276Z,23.70
2018-09-06T07:28:36.492Z,23.70
2018-09-06T07:29:40.816Z,23.70
2018-09-06T07:30:45.121Z,23.70
2018-09-06T07:31:49.569Z,23.60
2018-09-06T07:32:54.110Z,23.70
2018-09-06T07:33:58.393Z,23.70
2018-09-06T07:35:02.835Z,23.70
2018-09-06T07:36:07.394Z,23.60
2018-09-06T07:37:11.638Z,23.70
2018-09-06T07:38:16.102Z,23.70
2018-09-06T07:39:20.548Z,23.70
2018-09-06T07:40:24.975Z,23.60
2018-09-06T07:41:29.383Z,23.60
2018-09-06T07:42:33.684Z,23.60
2018-09-06T07:43:38.203Z,23.70
2018-09-06T07:44:42.671Z,23.70
2018-09-06T07:45:47.080Z,23.70
2018-09-06T07:46:51.625Z,23.70
2018-09-06T07:47:56.115Z,23.70
2018-09-06T07:49:00.634Z,23.80
2018-09-06T07:50:05.159Z,23.80
2018-09-06T07:51:09.626Z,23.80
2018-09-06T07:52:14.144Z,23.80
2018-09-06T07:53:18.491Z,23.80
2018-09-06T07:54:22.955Z,23.80
2018-09-06T07:55:27.425Z,23.80
2018-09-06T07:56:31.908Z,23.80
2018-09-06T07:57:36.368Z,23.80
2018-09-06T07:58:40.825Z,23.80
2018-09-06T07:59:45.348Z,23.80
2018-09-06T08:00:49.991Z,23.80
2018-09-06T08:01:54.369Z,23.80
2018-09-06T08:02:58.824Z,23.80
2018-09-06T08:04:03.074Z,23.80
2018-09-06T08:05:07.376Z,23.80
2018-09-06T08:06:11.813Z,23.80
2018-09-06T08:07:16.038Z,23.80
2018-09-06T08:08:20.290Z,23.80
2018-09-06T08:09:24.785Z,23.80
2018-09-06T08:10:29.271Z,23.80
2018-09-06T08:11:33.726Z,23.80
2018-09-06T08:12:38.165Z,23.90
2018-09-06T08:13:42.659Z,23.80
2018-09-06T08:14:47.101Z,23.80
2018-09-06T08:15:51.590Z,23.80
2018-09-06T08:16:56.052Z,23.80
2018-09-06T08:18:00.369Z,23.80
2018-09-06T08:19:04.862Z,23.80
2018-09-06T08:20:09.416Z,23.90
2018-09-06T08:21:13.762Z,23.90
2018-09-06T08:22:18.193Z,23.90
2018-09-06T08:23:22.608Z,23.90
2018-09-06T08:24:27.266Z,23.90
2018-09-06T08:25:31.693Z,23.90
2018-09-06T08:26:36.113Z,23.90
2018-09-06T08:27:40.461Z,23.90
2018-09-06T08:28:44.794Z,23.90
2018-09-06T08:29:49.273Z,24.00
2018-09-06T08:30:53.695Z,24.00
2018-09-06T08:31:57.869Z,24.00
2018-09-06T08:33:02.191Z,24.00
2018-09-06T08:34:06.626Z,24.00
2018-09-06T08:35:11.031Z,24.00
2018-09-06T08:36:15.399Z,24.00
2018-09-06T08:37:19.866Z,24.00
2018-09-06T08:38:24.389Z,24.00
2018-09-06T08:39:28.892Z,24.00
2018-09-06T08:40:33.169Z,24.10
2018-09-06T08:41:37.627Z,24.10
2018-09-06T08:42:41.961Z,24.10
2018-09-06T08:43:46.472Z,24.10
2018-09-06T08:44:50.990Z,24.10
2018-09-06T08:45:55.488Z,24.00
2018-09-06T08:46:59.803Z,24.00
2018-09-06T08:48:04.232Z,24.10
2018-09-06T08:49:08.712Z,24.00
2018-09-06T08:50:13.376Z,24.10
2018-09-06T08:51:17.759Z,24.10
2018-09-06T08:52:22.304Z,24.10
2018-09-06T08:53:26.734Z,24.10
2018-09-06T08:54:31.222Z,24.10
2018-09-06T08:55:35.564Z,24.10
2018-09-06T08:56:39.903Z,24.10
2018-09-06T08:57:44.373Z,24.10
2018-09-06T08:58:48.920Z,24.10
2018-09-06T08:59:53.466Z,24.10
2018-09-06T09:00:57.973Z,24.10
2018-09-06T09:02:02.435Z,24.10
2018-09-06T09:03:06.950Z,24.10
2018-09-06T09:04:11.444Z,24.10
2018-09-06T09:05:15.990Z,24.10
2018-09-06T09:06:20.484Z,24.20
2018-09-06T09:07:25.066Z,24.20
2018-09-06T09:08:29.558Z,24.20
2018-09-06T09:09:34.028Z,24.20
2018-09-06T09:10:38.426Z,24.20
2018-09-06T09:11:43.049Z,24.20
2018-09-06T09:12:47.325Z,24.20
2018-09-06T09:13:51.662Z,24.20
2018-09-06T09:14:56.300Z,24.20
2018-09-06T09:16:00.865Z,24.20
2018-09-06T09:17:05.277Z,24.20
2018-09-06T09:18:09.873Z,24.20
2018-09-06T09:19:14.250Z,24.20
2018-09-06T09:20:18.786Z,24.20
2018-09-06T09:21:23.222Z,24.30
2018-09-06T09:22:27.741Z,24.30
2018-09-06T09:23:32.394Z,24.30
2018-09-06T09:24:36.790Z,24.30
2018-09-06T09:25:41.194Z,24.30
2018-09-06T09:26:45.513Z,24.30
2018-09-06T09:27:49.972Z,24.30
2018-09-06T09:28:54.490Z,24.30
2018-09-06T09:29:58.879Z,24.30
2018-09-06T09:31:03.343Z,24.30
2018-09-06T09:32:07.859Z,24.30
2018-09-06T09:33:12.181Z,24.30
2018-09-06T09:34:16.624Z,24.30
2018-09-06T09:35:21.079Z,24.30
2018-09-06T09:36:25.354Z,24.30
2018-09-06T09:37:29.616Z,24.30
2018-09-06T09:38:34.113Z,24.30
2018-09-06T09:39:38.590Z,24.30
2018-09-06T09:40:43.025Z,24.30
2018-09-06T09:41:47.315Z,24.30
2018-09-06T09:42:51.759Z,24.30
2018-09-06T09:43:56.257Z,24.30
2018-09-06T09:45:00.808Z,24.30
2018-09-06T09:47:47.410Z,24.30
2018-09-06T09:48:51.884Z,24.30
2018-09-06T09:49:56.221Z,24.30
2018-09-06T09:51:00.753Z,24.40
2018-09-06T09:52:05.119Z,24.40
2018-09-06T09:53:09.556Z,24.40
2018-09-06T09:54:13.872Z,24.40
2018-09-06T09:55:18.079Z,24.40
2018-09-06T09:56:22.533Z,24.40
2018-09-06T09:57:26.871Z,24.40
2018-09-06T09:58:31.429Z,24.40
2018-09-06T09:59:35.882Z,24.40
2018-09-06T10:00:40.174Z,24.40
2018-09-06T10:01:44.630Z,24.40
2018-09-06T10:02:48.978Z,24.40
2018-09-06T10:04:02.557Z,24.40
2018-09-06T10:05:07.036Z,24.40
2018-09-06T10:06:11.517Z,24.40
2018-09-06T10:07:15.882Z,24.40
2018-09-06T10:08:20.156Z,24.40
2018-09-06T10:09:24.503Z,24.40
2018-09-06T10:10:28.989Z,24.40
2018-09-06T10:11:33.304Z,24.40
2018-09-06T10:12:37.536Z,24.40
2018-09-06T10:13:41.956Z,24.40
2018-09-06T10:14:46.189Z,24.40
2018-09-06T10:15:50.483Z,24.40
2018-09-06T10:16:55.005Z,24.40
2018-09-06T10:17:59.572Z,24.40
2018-09-06T10:19:03.758Z,24.40
2018-09-06T10:20:08.177Z,24.40
2018-09-06T10:21:13.504Z,24.40
2018-09-06T10:22:17.831Z,24.40
2018-09-06T10:23:22.132Z,24.40
2018-09-06T10:24:26.454Z,24.40
2018-09-06T10:25:30.932Z,24.40
2018-09-06T10:26:35.335Z,24.40
2018-09-06T10:27:39.628Z,24.40
2018-09-06T10:28:43.961Z,24.40
2018-09-06T10:29:48.415Z,24.40
2018-09-06T10:30:52.858Z,24.40
2018-09-06T10:31:57.315Z,24.50
2018-09-06T10:33:01.568Z,24.50
2018-09-06T10:34:05.990Z,24.50
2018-09-06T10:35:10.332Z,24.50
2018-09-06T10:36:14.787Z,24.50
2018-09-06T10:37:19.020Z,24.50
2018-09-06T10:38:25.465Z,24.50
2018-09-06T10:39:29.913Z,24.50
2018-09-06T10:40:34.314Z,24.50
2018-09-06T10:41:38.974Z,24.50
2018-09-06T10:42:43.552Z,24.60
2018-09-06T10:43:47.949Z,24.60
2018-09-06T10:44:52.276Z,24.60
2018-09-06T10:45:56.603Z,24.60
2018-09-06T10:47:01.128Z,24.60
2018-09-06T10:48:05.616Z,24.60
2018-09-06T10:49:09.925Z,24.60
2018-09-06T10:50:14.359Z,24.60
2018-09-06T10:51:18.885Z,24.60
2018-09-06T10:52:23.185Z,24.60
2018-09-06T10:53:27.628Z,24.60
2018-09-06T10:54:32.063Z,24.60
2018-09-06T10:55:37.123Z,24.60
2018-09-06T10:56:41.759Z,24.60
2018-09-06T10:57:46.075Z,24.60
2018-09-06T10:58:50.569Z,24.60
2018-09-06T10:59:55.022Z,24.60
2018-09-06T11:00:59.503Z,24.60
2018-09-06T11:02:03.934Z,24.60
2018-09-06T11:03:08.358Z,24.60
2018-09-06T11:04:12.696Z,24.60
2018-09-06T11:05:16.955Z,24.60
2018-09-06T11:06:21.406Z,24.60
2018-09-06T11:07:25.866Z,24.60
2018-09-06T11:08:30.350Z,24.60
2018-09-06T11:09:34.738Z,24.60
2018-09-06T11:10:39.170Z,24.60
2018-09-06T11:11:43.633Z,24.60
2018-09-06T11:12:47.868Z,24.60
2018-09-06T11:13:52.157Z,24.60
2018-09-06T11:14:56.560Z,24.60
2018-09-06T11:16:00.926Z,24.60
2018-09-06T11:17:05.311Z,24.60
2018-09-06T11:18:09.766Z,24.60
2018-09-06T11:19:14.002Z,24.60
2018-09-06T11:20:18.465Z,24.60
2018-09-06T11:21:22.923Z,24.70
2018-09-06T11:22:27.425Z,24.70
2018-09-06T11:23:31.717Z,24.60
2018-09-06T11:24:36.162Z,24.70
2018-09-06T11:25:40.603Z,24.70
2018-09-06T11:26:45.044Z,24.60
2018-09-06T11:27:49.536Z,24.70
2018-09-06T11:28:53.800Z,24.70
2018-09-06T11:29:58.291Z,24.70
2018-09-06T11:31:02.628Z,24.70
2018-09-06T11:32:07.116Z,24.70
2018-09-06T11:33:11.700Z,24.70
2018-09-06T11:34:16.095Z,24.70
2018-09-06T11:35:20.590Z,24.70
2018-09-06T11:36:25.026Z,24.70
2018-09-06T11:37:29.537Z,24.70
2018-09-06T11:38:34.006Z,24.70
2018-09-06T11:39:38.320Z,24.70
2018-09-06T11:40:42.763Z,24.80
2018-09-06T11:41:47.006Z,24.80
2018-09-06T11:42:51.426Z,24.70
2018-09-06T11:43:55.817Z,24.80
2018-09-06T11:45:00.300Z,24.80
2018-09-06T11:46:04.651Z,24.80
2018-09-06T11:47:08.982Z,24.80
2018-09-06T11:48:13.372Z,24.80
2018-09-06T11:49:17.772Z,24.80
2018-09-06T11:50:22.277Z,24.80
2018-09-06T11:51:26.580Z,24.80
2018-09-06T11:52:30.965Z,24.90
2018-09-06T11:53:35.913Z,24.90
2018-09-06T11:54:40.604Z,24.80
2018-09-06T11:55:45.099Z,24.80
2018-09-06T11:56:49.584Z,24.90
2018-09-06T11:57:54.192Z,24.90
2018-09-06T11:58:58.535Z,24.80
2018-09-06T12:00:02.870Z,24.80
2018-09-06T12:01:07.390Z,24.80
2018-09-06T12:02:11.974Z,24.80
2018-09-06T12:03:16.438Z,24.80
2018-09-06T12:04:20.929Z,24.80
2018-09-06T12:05:25.263Z,24.90
2018-09-06T12:06:29.663Z,24.90
2018-09-06T12:07:34.164Z,24.90
2018-09-06T12:08:38.447Z,24.90
2018-09-06T12:09:42.756Z,24.90
2018-09-06T12:10:47.222Z,24.90
2018-09-06T12:11:51.633Z,24.90
2018-09-06T12:12:56.160Z,25.00
2018-09-06T12:14:00.606Z,25.00
2018-09-06T12:15:05.213Z,25.00
2018-09-06T12:16:09.698Z,25.00
2018-09-06T12:17:14.357Z,25.00
2018-09-06T12:18:18.910Z,25.00
2018-09-06T12:21:09.554Z,25.00
2018-09-06T12:22:13.767Z,25.00
2018-09-06T12:23:18.185Z,25.00
2018-09-06T12:24:22.668Z,25.00
2018-09-06T12:25:27.183Z,25.00
2018-09-06T12:26:31.453Z,25.00
2018-09-06T12:27:35.979Z,24.90
2018-09-06T12:28:40.449Z,25.00
2018-09-06T12:29:44.895Z,25.00
2018-09-06T12:30:49.309Z,25.00
2018-09-06T12:31:53.601Z,25.00
2018-09-06T12:32:58.075Z,24.90
2018-09-06T12:34:02.452Z,24.90
2018-09-06T12:35:06.912Z,24.90
2018-09-06T12:36:11.158Z,24.90
2018-09-06T12:37:15.407Z,24.90
2018-09-06T12:38:19.790Z,24.90
2018-09-06T12:39:24.221Z,24.90
2018-09-06T12:40:28.531Z,24.90
2018-09-06T12:41:32.768Z,24.90
2018-09-06T12:42:37.226Z,24.90
2018-09-06T12:43:41.535Z,24.90
2018-09-06T12:44:46.045Z,25.00
2018-09-06T12:45:50.321Z,25.00
2018-09-06T12:46:54.594Z,25.00
2018-09-06T12:47:58.854Z,25.00
2018-09-06T12:49:03.346Z,25.00
2018-09-06T12:50:07.895Z,25.00
2018-09-06T12:51:12.368Z,25.00
2018-09-06T12:52:16.637Z,25.10
2018-09-06T12:53:20.945Z,25.10
2018-09-06T12:54:25.411Z,25.10
2018-09-06T12:55:29.805Z,25.10
2018-09-06T12:56:34.242Z,25.10
2018-09-06T12:57:38.541Z,25.10
2018-09-06T12:58:42.997Z,25.10
2018-09-06T12:59:47.354Z,25.10
2018-09-06T13:00:51.844Z,25.10
2018-09-06T13:01:56.204Z,25.20
2018-09-06T13:03:00.711Z,25.20
2018-09-06T13:04:05.125Z,25.40
2018-09-06T13:05:09.518Z,25.40
2018-09-06T13:06:13.955Z,25.40
2018-09-06T13:07:18.318Z,25.30
2018-09-06T13:08:22.788Z,25.30
2018-09-06T13:09:27.215Z,25.20
2018-09-06T13:10:31.703Z,25.20
2018-09-06T13:11:35.941Z,25.20
2018-09-06T13:12:40.361Z,25.20
2018-09-06T13:16:00.195Z,25.10
2018-09-06T13:17:04.474Z,25.10
2018-09-06T13:18:08.810Z,25.10
2018-09-06T13:19:13.185Z,25.10
2018-09-06T13:20:17.688Z,25.10
2018-09-06T13:21:21.937Z,25.00
2018-09-06T13:22:26.391Z,25.00
2018-09-06T13:23:30.699Z,25.00
2018-09-06T13:24:35.052Z,25.00
2018-09-06T13:25:39.345Z,25.00
2018-09-06T13:26:43.857Z,24.90
2018-09-06T13:27:48.211Z,25.00
2018-09-06T13:28:52.671Z,25.00
2018-09-06T13:29:56.962Z,24.90
2018-09-06T13:31:01.425Z,24.90
2018-09-06T13:32:05.729Z,24.90
2018-09-06T13:33:10.212Z,24.90
2018-09-06T13:34:14.677Z,24.90
2018-09-06T13:35:18.989Z,24.90
2018-09-06T13:36:23.331Z,24.90
2018-09-06T13:37:27.786Z,24.90
2018-09-06T13:38:32.241Z,24.90
2018-09-06T13:39:36.680Z,24.90
2018-09-06T13:40:41.003Z,24.90
2018-09-06T13:41:45.511Z,24.90
2018-09-06T13:42:49.964Z,24.90
2018-09-06T13:43:54.216Z,24.90
2018-09-06T13:44:58.456Z,24.90
2018-09-06T13:46:02.744Z,24.90
2018-09-06T13:47:07.021Z,24.80
2018-09-06T13:48:11.261Z,24.80
2018-09-06T13:49:15.599Z,24.90
2018-09-06T13:50:19.999Z,24.90
2018-09-06T13:51:24.434Z,24.90
2018-09-06T13:52:28.844Z,24.90
2018-09-06T13:53:33.077Z,24.90
2018-09-06T13:54:37.356Z,24.80
2018-09-06T13:55:41.908Z,24.80